메인 페이지
METAR-TAF:

METAR-TAF

공항 :

McAlester, 오클라호마, 미국

위도: 34-52-56N, 경도: 095-46-59W, 고도: 234m

현재 날씨관측

예보는 15분 전, 05:53시(UTC)에 발표되었습니다.
무풍
온도 24°C
습도 100%
기압 1014 hPa
시정: 16.1km
고도 6500ft 상공 구름 보통
고도 8500ft 상공 구름 많음

METAR: KMLC 160553Z AUTO 00000KT 10SM SCT065 BKN085 24/24 A2995 RMK AO2 SLP129 T02440239 10311 20244 403280217 51008

시각: 01:08 (06:08 UTC)

예보

예보는 48분 전, 05:20시(UTC)에 발표되었습니다.
예보 대상 시간: 16일 06시부터 17일 06시까지 (UTC)
여러 방향의 바람 3kt
시정: 10km
고도 5000ft 상공 구름 많음
16일 1500시부터 (UTC)
남서7kt
시정: 10km
고도 4000ft 상공 구름 보통
고도 25000ft 상공 구름 보통

TAF: KMLC 160520Z 1606/1706 VRB03KT P6SM BKN050 FM161500 22007KT P6SM SCT040 SCT250

4,000개 이상의 공항 관측 자료 및 예보 (METAR 및 TAF 보고).

지도상에서 검색 가능한 기상관측소가 노란 점과 빨간 점으로 표시되어 있습니다.

기상관측소 명을 보려면 표시 위로 마우스를 이동하세요.

날씨 관측과 예보를 보려면 클릭하세요.

지도 변경 : 확대하려면 엑스 표시가 있는 녹색 버튼, 축소하려면 빼기 표시가 있는 녹색 버튼, 다음 페이지의 지도를 보려면 녹색 화살표를 클릭하세요.


METAR-TAF: